createdAt,value
2022-10-11T00:03:11.242Z,15.20
2022-10-11T00:08:25.189Z,15.22
2022-10-11T00:13:53.586Z,15.26
2022-10-11T00:19:02.610Z,15.25
2022-10-11T00:24:26.250Z,15.26
2022-10-11T00:29:51.390Z,15.26
2022-10-11T00:35:06.490Z,15.23
2022-10-11T00:40:20.198Z,15.23
2022-10-11T00:46:08.254Z,15.21
2022-10-11T00:51:41.789Z,15.15
2022-10-11T00:56:58.328Z,14.97
2022-10-11T01:02:07.976Z,14.79
2022-10-11T01:07:30.162Z,14.65
2022-10-11T01:12:55.411Z,14.55
2022-10-11T01:18:15.770Z,14.43
2022-10-11T01:24:11.465Z,14.29
2022-10-11T01:29:27.480Z,14.19
2022-10-11T01:34:43.973Z,14.21
2022-10-11T01:39:55.658Z,14.08
2022-10-11T01:45:03.585Z,13.90
2022-10-11T01:50:44.283Z,13.76
2022-10-11T01:55:58.788Z,13.64
2022-10-11T02:01:25.174Z,13.52
2022-10-11T02:06:48.478Z,13.39
2022-10-11T02:12:11.656Z,13.29
2022-10-11T02:17:32.834Z,13.18
2022-10-11T02:22:46.502Z,13.07
2022-10-11T02:28:14.601Z,12.96
2022-10-11T02:33:28.295Z,12.83
2022-10-11T02:38:43.287Z,12.73
2022-10-11T02:44:00.717Z,12.62
2022-10-11T02:49:13.971Z,12.52
2022-10-11T02:54:36.263Z,12.42
2022-10-11T02:59:40.090Z,12.32
2022-10-11T03:04:55.072Z,12.22
2022-10-11T03:10:10.368Z,12.14
2022-10-11T03:15:22.848Z,12.03
2022-10-11T03:20:28.955Z,11.97
2022-10-11T03:25:47.651Z,11.87
2022-10-11T03:30:55.456Z,11.77
2022-10-11T03:36:08.555Z,11.67
2022-10-11T03:41:16.161Z,11.59
2022-10-11T03:46:24.775Z,11.52
2022-10-11T03:51:38.706Z,11.41
2022-10-11T03:56:47.645Z,11.35
2022-10-11T04:02:16.618Z,11.27
2022-10-11T04:07:47.683Z,11.21
2022-10-11T04:13:10.176Z,11.14
2022-10-11T04:18:21.793Z,11.06
2022-10-11T04:23:35.879Z,11.02
2022-10-11T04:29:00.989Z,10.99
2022-10-11T04:34:13.928Z,10.91
2022-10-11T04:39:33.865Z,10.86
2022-10-11T04:44:42.525Z,10.80
2022-10-11T04:50:08.869Z,10.74
2022-10-11T04:55:27.410Z,10.70
2022-10-11T05:00:35.819Z,10.64
2022-10-11T05:05:41.589Z,10.58
2022-10-11T05:10:59.155Z,10.56
2022-10-11T05:16:20.389Z,10.51
2022-10-11T05:21:34.918Z,10.45
2022-10-11T05:26:53.964Z,10.43
2022-10-11T05:32:02.864Z,10.40
2022-10-11T05:37:09.941Z,10.38
2022-10-11T05:42:29.148Z,10.37
2022-10-11T05:48:01.849Z,10.38
2022-10-11T05:53:08.402Z,10.35
2022-10-11T05:58:19.770Z,10.37
2022-10-11T06:03:40.424Z,10.38
2022-10-11T06:08:58.140Z,10.41
2022-10-11T06:14:14.803Z,10.44
2022-10-11T06:19:22.969Z,10.50
2022-10-11T06:30:21.885Z,10.65
2022-10-11T06:35:38.440Z,10.74
2022-10-11T06:41:02.796Z,10.87
2022-10-11T06:46:15.020Z,10.96
2022-10-11T06:51:24.567Z,11.55
2022-10-11T06:56:47.589Z,11.85
2022-10-11T07:01:58.185Z,11.75
2022-10-11T07:07:17.051Z,11.96
2022-10-11T07:12:24.695Z,12.15
2022-10-11T07:17:36.301Z,12.35
2022-10-11T07:22:55.974Z,12.54
2022-10-11T07:28:12.006Z,12.77
2022-10-11T07:33:39.087Z,12.95
2022-10-11T07:38:52.409Z,13.21
2022-10-11T07:44:05.660Z,13.41
2022-10-11T07:49:26.040Z,14.05
2022-10-11T07:54:48.783Z,14.14
2022-10-11T08:00:02.330Z,14.24
2022-10-11T08:05:27.620Z,14.62
2022-10-11T08:10:45.018Z,14.77
2022-10-11T08:15:53.372Z,14.89
2022-10-11T08:21:09.506Z,14.98
2022-10-11T08:26:24.160Z,15.09
2022-10-11T08:31:36.616Z,15.19
2022-10-11T08:37:08.491Z,15.32
2022-10-11T08:42:42.976Z,15.51
2022-10-11T08:48:15.219Z,15.57
2022-10-11T08:53:37.696Z,15.66
2022-10-11T08:59:03.452Z,15.74
2022-10-11T09:04:15.594Z,15.84
2022-10-11T09:09:40.062Z,15.89
2022-10-11T09:15:29.981Z,16.01
2022-10-11T09:21:03.195Z,16.04
2022-10-11T09:26:25.554Z,16.16
2022-10-11T09:31:36.112Z,16.34
2022-10-11T09:37:14.046Z,16.55
2022-10-11T09:43:11.155Z,16.66
2022-10-11T09:48:28.895Z,16.72
2022-10-11T09:54:00.098Z,16.55
2022-10-11T09:59:48.683Z,16.38
2022-10-11T10:05:23.751Z,16.29
2022-10-11T10:10:37.711Z,16.18
2022-10-11T10:15:55.148Z,16.25
2022-10-11T10:21:15.792Z,16.44
2022-10-11T10:26:27.641Z,16.71
2022-10-11T10:32:01.957Z,16.79
2022-10-11T10:37:20.899Z,16.89
2022-10-11T10:42:29.684Z,16.71
2022-10-11T10:47:56.158Z,16.61
2022-10-11T10:53:30.539Z,16.46
2022-10-11T10:59:17.632Z,16.28
2022-10-11T11:04:34.197Z,16.18
2022-10-11T11:09:55.443Z,16.13
2022-10-11T11:15:13.382Z,16.16
2022-10-11T11:20:47.005Z,16.12
2022-10-11T11:26:04.329Z,16.19
2022-10-11T11:31:25.480Z,16.27
2022-10-11T11:36:40.869Z,16.46
2022-10-11T11:41:55.442Z,16.82
2022-10-11T11:47:07.662Z,17.07
2022-10-11T11:52:22.716Z,17.24
2022-10-11T11:57:40.197Z,17.38
2022-10-11T12:02:53.074Z,17.45
2022-10-11T12:08:11.530Z,17.52
2022-10-11T12:13:32.264Z,17.47
2022-10-11T12:18:50.904Z,17.23
2022-10-11T12:23:58.045Z,17.33
2022-10-11T12:29:56.612Z,17.45
2022-10-11T12:35:53.364Z,17.43
2022-10-11T12:41:43.309Z,17.32
2022-10-11T12:47:31.145Z,17.25
2022-10-11T12:52:50.707Z,17.10
2022-10-11T12:58:24.056Z,17.00
2022-10-11T13:03:46.618Z,16.95
2022-10-11T13:09:09.987Z,16.96
2022-10-11T13:14:28.750Z,16.89
2022-10-11T13:19:50.608Z,16.87
2022-10-11T13:25:03.178Z,16.89
2022-10-11T13:30:20.359Z,16.91
2022-10-11T13:35:38.073Z,16.97
2022-10-11T13:41:03.074Z,17.01
2022-10-11T13:46:27.438Z,17.00
2022-10-11T13:51:38.948Z,17.01
2022-10-11T13:56:53.103Z,17.16
2022-10-11T14:02:18.847Z,17.18
2022-10-11T14:07:32.091Z,17.15
2022-10-11T14:12:56.501Z,17.17
2022-10-11T14:18:28.684Z,17.12
2022-10-11T14:23:37.457Z,17.07
2022-10-11T14:29:06.692Z,17.05
2022-10-11T14:34:22.850Z,16.97
2022-10-11T14:39:43.794Z,16.93
2022-10-11T14:44:51.798Z,16.79
2022-10-11T14:50:02.514Z,16.77
2022-10-11T14:55:37.970Z,16.60
2022-10-11T15:00:47.116Z,16.53
2022-10-11T15:05:52.975Z,16.47
2022-10-11T15:11:08.696Z,16.37
2022-10-11T15:16:25.065Z,16.27
2022-10-11T15:21:36.948Z,16.17
2022-10-11T15:26:52.200Z,16.10
2022-10-11T15:32:05.788Z,15.98
2022-10-11T15:37:15.985Z,15.85
2022-10-11T15:42:28.496Z,15.75
2022-10-11T15:47:48.537Z,15.63
2022-10-11T15:52:54.245Z,15.52
2022-10-11T15:58:05.230Z,15.42
2022-10-11T16:03:41.734Z,15.33
2022-10-11T16:08:54.848Z,15.21
2022-10-11T16:14:04.200Z,15.09
2022-10-11T16:19:11.212Z,14.99
2022-10-11T16:24:19.509Z,14.88
2022-10-11T16:29:25.950Z,14.78
2022-10-11T16:34:32.708Z,14.66
2022-10-11T16:39:39.689Z,14.55
2022-10-11T16:44:50.924Z,14.44
2022-10-11T16:50:06.669Z,14.33
2022-10-11T16:55:17.638Z,14.19
2022-10-11T17:00:26.694Z,14.07
2022-10-11T17:05:53.076Z,13.96
2022-10-11T17:11:10.621Z,13.83
2022-10-11T17:16:20.459Z,13.72
2022-10-11T17:21:28.073Z,13.61
2022-10-11T17:26:39.424Z,13.49
2022-10-11T17:32:12.236Z,13.40
2022-10-11T17:37:37.547Z,13.29
2022-10-11T17:43:01.219Z,13.19
2022-10-11T17:48:19.408Z,13.11
2022-10-11T17:53:33.889Z,13.01
2022-10-11T17:58:50.477Z,12.93
2022-10-11T18:04:33.861Z,12.86
2022-10-11T18:09:46.507Z,12.75
2022-10-11T18:14:57.911Z,12.70
2022-10-11T18:20:21.284Z,12.64
2022-10-11T18:25:33.267Z,12.57
2022-10-11T18:31:00.948Z,12.54
2022-10-11T18:36:13.375Z,12.46
2022-10-11T18:41:19.797Z,12.38
2022-10-11T18:46:35.515Z,12.31
2022-10-11T18:51:41.559Z,12.26
2022-10-11T18:56:51.652Z,12.19
2022-10-11T19:02:09.591Z,12.10
2022-10-11T19:12:51.578Z,11.96
2022-10-11T19:18:05.907Z,11.92
2022-10-11T19:23:15.777Z,11.85
2022-10-11T19:28:29.486Z,11.78
2022-10-11T19:33:40.490Z,11.72
2022-10-11T19:38:59.686Z,11.67
2022-10-11T19:44:12.967Z,11.62
2022-10-11T19:49:23.228Z,11.56
2022-10-11T19:54:31.685Z,11.52
2022-10-11T19:59:36.786Z,11.47
2022-10-11T20:04:52.482Z,11.43
2022-10-11T20:09:59.580Z,11.42
2022-10-11T20:15:15.088Z,11.41
2022-10-11T20:20:27.840Z,11.36
2022-10-11T20:25:34.237Z,11.30
2022-10-11T20:30:44.436Z,11.24
2022-10-11T20:36:03.728Z,11.20
2022-10-11T20:41:12.178Z,11.13
2022-10-11T20:46:32.123Z,11.09
2022-10-11T20:51:40.350Z,11.02
2022-10-11T20:56:54.804Z,10.97
2022-10-11T21:02:01.008Z,10.92
2022-10-11T21:07:18.843Z,10.87
2022-10-11T21:12:36.050Z,10.84
2022-10-11T21:18:02.256Z,10.80
2022-10-11T21:23:20.168Z,10.76
2022-10-11T21:34:03.654Z,10.70
2022-10-11T21:39:20.488Z,10.65
2022-10-11T21:44:44.743Z,10.59
2022-10-11T21:49:53.583Z,10.54
2022-10-11T21:55:08.880Z,10.51
2022-10-11T22:00:26.633Z,10.47
2022-10-11T22:05:35.657Z,10.42
2022-10-11T22:10:53.840Z,10.39
2022-10-11T22:16:11.179Z,10.33
2022-10-11T22:21:47.040Z,10.27
2022-10-11T22:26:53.727Z,10.22
2022-10-11T22:32:13.942Z,10.21
2022-10-11T22:37:33.062Z,10.14
2022-10-11T22:42:42.265Z,10.11
2022-10-11T22:47:56.377Z,10.08
2022-10-11T22:53:02.755Z,10.03
2022-10-11T22:58:09.107Z,10.00
2022-10-11T23:03:19.139Z,9.97
2022-10-11T23:08:38.348Z,9.94
2022-10-11T23:13:51.285Z,9.93
2022-10-11T23:19:12.337Z,9.91
2022-10-11T23:24:28.228Z,9.89
2022-10-11T23:29:51.452Z,9.91
2022-10-11T23:35:04.863Z,9.88
2022-10-11T23:40:31.167Z,9.83
2022-10-11T23:45:43.577Z,9.78
2022-10-11T23:50:50.645Z,9.75
2022-10-11T23:56:05.707Z,9.69
